sensor_id;sensor_type;location;lat;lon;timestamp;pressure;altitude;pressure_sealevel;temperature
60731;BMP280;46580;52.114;11.674;2023-05-10T00:02:01;100388.28;;;13.01
60731;BMP280;46580;52.114;11.674;2023-05-10T00:04:26;100385.44;;;12.95
60731;BMP280;46580;52.114;11.674;2023-05-10T00:07:00;100391.16;;;12.99
60731;BMP280;46580;52.114;11.674;2023-05-10T00:09:25;100376.19;;;13.02
60731;BMP280;46580;52.114;11.674;2023-05-10T00:11:51;100378.13;;;12.91
60731;BMP280;46580;52.114;11.674;2023-05-10T00:14:16;100381.66;;;12.90
60731;BMP280;46580;52.114;11.674;2023-05-10T00:16:44;100382.34;;;12.82
60731;BMP280;46580;52.114;11.674;2023-05-10T00:19:10;100380.97;;;12.88
60731;BMP280;46580;52.114;11.674;2023-05-10T00:21:43;100373.78;;;12.91
60731;BMP280;46580;52.114;11.674;2023-05-10T00:24:08;100373.50;;;12.85
60731;BMP280;46580;52.114;11.674;2023-05-10T00:26:41;100367.78;;;12.82
60731;BMP280;46580;52.114;11.674;2023-05-10T00:29:07;100363.75;;;12.79
60731;BMP280;46580;52.114;11.674;2023-05-10T00:31:35;100369.03;;;12.87
60731;BMP280;46580;52.114;11.674;2023-05-10T00:34:01;100361.56;;;12.65
60731;BMP280;46580;52.114;11.674;2023-05-10T00:36:31;100358.56;;;12.70
60731;BMP280;46580;52.114;11.674;2023-05-10T00:38:57;100353.84;;;12.65
60731;BMP280;46580;52.114;11.674;2023-05-10T00:41:30;100354.47;;;12.58
60731;BMP280;46580;52.114;11.674;2023-05-10T00:43:58;100358.13;;;12.56
60731;BMP280;46580;52.114;11.674;2023-05-10T00:46:24;100353.16;;;12.64
60731;BMP280;46580;52.114;11.674;2023-05-10T00:48:50;100350.41;;;12.56
60731;BMP280;46580;52.114;11.674;2023-05-10T00:51:19;100349.31;;;12.58
60731;BMP280;46580;52.114;11.674;2023-05-10T00:53:45;100353.41;;;12.51
60731;BMP280;46580;52.114;11.674;2023-05-10T00:56:13;100348.38;;;12.50
60731;BMP280;46580;52.114;11.674;2023-05-10T00:58:42;100349.72;;;12.54
60731;BMP280;46580;52.114;11.674;2023-05-10T01:01:10;100347.28;;;12.43
60731;BMP280;46580;52.114;11.674;2023-05-10T01:03:37;100339.81;;;12.40
60731;BMP280;46580;52.114;11.674;2023-05-10T01:06:02;100340.88;;;12.47
60731;BMP280;46580;52.114;11.674;2023-05-10T01:08:30;100343.34;;;12.58
60731;BMP280;46580;52.114;11.674;2023-05-10T01:10:58;100337.34;;;12.48
60731;BMP280;46580;52.114;11.674;2023-05-10T01:13:43;100337.09;;;12.42
60731;BMP280;46580;52.114;11.674;2023-05-10T01:16:17;100333.44;;;12.44
60731;BMP280;46580;52.114;11.674;2023-05-10T01:18:46;100330.31;;;12.31
60731;BMP280;46580;52.114;11.674;2023-05-10T01:26:42;100341.44;;;12.32
60731;BMP280;46580;52.114;11.674;2023-05-10T01:35:15;100340.88;;;12.28
60731;BMP280;46580;52.114;11.674;2023-05-10T01:38:17;100335.47;;;12.31
60731;BMP280;46580;52.114;11.674;2023-05-10T01:43:22;100345.78;;;12.31
60731;BMP280;46580;52.114;11.674;2023-05-10T01:46:00;100339.13;;;12.20
60731;BMP280;46580;52.114;11.674;2023-05-10T01:48:29;100340.38;;;12.25
60731;BMP280;46580;52.114;11.674;2023-05-10T01:50:57;100337.38;;;12.29
60731;BMP280;46580;52.114;11.674;2023-05-10T01:53:23;100328.56;;;12.32
60731;BMP280;46580;52.114;11.674;2023-05-10T01:55:52;100329.50;;;12.12
60731;BMP280;46580;52.114;11.674;2023-05-10T01:58:28;100322.16;;;12.26
60731;BMP280;46580;52.114;11.674;2023-05-10T02:01:04;100328.13;;;12.18
60731;BMP280;46580;52.114;11.674;2023-05-10T02:03:31;100328.38;;;11.96
60731;BMP280;46580;52.114;11.674;2023-05-10T02:05:57;100332.47;;;11.99
60731;BMP280;46580;52.114;11.674;2023-05-10T02:08:23;100327.97;;;12.01
60731;BMP280;46580;52.114;11.674;2023-05-10T02:10:55;100325.56;;;11.99
60731;BMP280;46580;52.114;11.674;2023-05-10T02:13:23;100328.13;;;11.99
60731;BMP280;46580;52.114;11.674;2023-05-10T02:15:49;100326.50;;;11.98
60731;BMP280;46580;52.114;11.674;2023-05-10T02:18:16;100330.97;;;11.96
60731;BMP280;46580;52.114;11.674;2023-05-10T02:20:45;100322.00;;;11.91
60731;BMP280;46580;52.114;11.674;2023-05-10T02:23:12;100324.31;;;11.94
60731;BMP280;46580;52.114;11.674;2023-05-10T02:25:39;100326.19;;;11.83
60731;BMP280;46580;52.114;11.674;2023-05-10T02:28:06;100318.31;;;11.75
60731;BMP280;46580;52.114;11.674;2023-05-10T02:30:35;100316.66;;;11.74
60731;BMP280;46580;52.114;11.674;2023-05-10T02:33:01;100322.34;;;11.68
60731;BMP280;46580;52.114;11.674;2023-05-10T02:35:32;100322.22;;;11.70
60731;BMP280;46580;52.114;11.674;2023-05-10T02:37:59;100320.72;;;11.67
60731;BMP280;46580;52.114;11.674;2023-05-10T02:40:25;100325.59;;;11.61
60731;BMP280;46580;52.114;11.674;2023-05-10T02:42:52;100313.09;;;11.56
60731;BMP280;46580;52.114;11.674;2023-05-10T02:45:23;100304.97;;;11.52
60731;BMP280;46580;52.114;11.674;2023-05-10T02:47:50;100309.47;;;11.59
60731;BMP280;46580;52.114;11.674;2023-05-10T02:50:15;100309.13;;;11.43
60731;BMP280;46580;52.114;11.674;2023-05-10T02:52:46;100317.00;;;11.42
60731;BMP280;46580;52.114;11.674;2023-05-10T02:55:14;100310.91;;;11.43
60731;BMP280;46580;52.114;11.674;2023-05-10T02:57:46;100317.91;;;11.32
60731;BMP280;46580;52.114;11.674;2023-05-10T03:00:12;100316.00;;;11.33
60731;BMP280;46580;52.114;11.674;2023-05-10T03:02:37;100317.41;;;11.37
60731;BMP280;46580;52.114;11.674;2023-05-10T03:43:20;100326.16;;;11.06
60731;BMP280;46580;52.114;11.674;2023-05-10T06:41:17;100327.13;;;14.58
60731;BMP280;46580;52.114;11.674;2023-05-10T06:43:45;100331.25;;;14.69
60731;BMP280;46580;52.114;11.674;2023-05-10T06:46:19;100334.44;;;14.63
60731;BMP280;46580;52.114;11.674;2023-05-10T06:48:45;100327.59;;;14.96
60731;BMP280;46580;52.114;11.674;2023-05-10T06:51:11;100334.28;;;15.06
60731;BMP280;46580;52.114;11.674;2023-05-10T07:04:43;100323.25;;;15.69
60731;BMP280;46580;52.114;11.674;2023-05-10T07:07:10;100320.31;;;16.13
60731;BMP280;46580;52.114;11.674;2023-05-10T07:09:37;100322.13;;;16.36
60731;BMP280;46580;52.114;11.674;2023-05-10T07:12:03;100327.00;;;16.38
60731;BMP280;46580;52.114;11.674;2023-05-10T07:14:28;100329.94;;;16.43
60731;BMP280;46580;52.114;11.674;2023-05-10T07:16:54;100325.03;;;16.33
60731;BMP280;46580;52.114;11.674;2023-05-10T07:19:19;100331.06;;;16.49
60731;BMP280;46580;52.114;11.674;2023-05-10T07:21:45;100326.84;;;16.40
60731;BMP280;46580;52.114;11.674;2023-05-10T07:24:10;100326.34;;;16.44
60731;BMP280;46580;52.114;11.674;2023-05-10T07:26:38;100326.66;;;16.26
60731;BMP280;46580;52.114;11.674;2023-05-10T07:29:11;100327.31;;;16.67
60731;BMP280;46580;52.114;11.674;2023-05-10T07:31:38;100329.91;;;16.59
60731;BMP280;46580;52.114;11.674;2023-05-10T07:34:06;100321.47;;;16.88
60731;BMP280;46580;52.114;11.674;2023-05-10T07:36:31;100327.78;;;16.86
60731;BMP280;46580;52.114;11.674;2023-05-10T07:39:04;100317.25;;;16.95
60731;BMP280;46580;52.114;11.674;2023-05-10T07:41:30;100334.50;;;16.57
60731;BMP280;46580;52.114;11.674;2023-05-10T07:43:58;100334.13;;;16.52
60731;BMP280;46580;52.114;11.674;2023-05-10T07:46:23;100335.47;;;16.95
60731;BMP280;46580;52.114;11.674;2023-05-10T07:48:54;100335.28;;;17.04
60731;BMP280;46580;52.114;11.674;2023-05-10T07:51:20;100336.84;;;17.29
60731;BMP280;46580;52.114;11.674;2023-05-10T07:53:46;100336.81;;;17.36
60731;BMP280;46580;52.114;11.674;2023-05-10T07:56:25;100336.03;;;17.28
60731;BMP280;46580;52.114;11.674;2023-05-10T07:58:52;100346.28;;;17.22
60731;BMP280;46580;52.114;11.674;2023-05-10T08:01:18;100343.56;;;17.08
60731;BMP280;46580;52.114;11.674;2023-05-10T08:03:43;100340.72;;;17.32
60731;BMP280;46580;52.114;11.674;2023-05-10T08:06:09;100344.53;;;17.07
60731;BMP280;46580;52.114;11.674;2023-05-10T08:08:37;100352.81;;;17.10
60731;BMP280;46580;52.114;11.674;2023-05-10T08:11:03;100353.28;;;17.29
60731;BMP280;46580;52.114;11.674;2023-05-10T08:13:31;100360.47;;;16.96
60731;BMP280;46580;52.114;11.674;2023-05-10T08:15:57;100353.94;;;17.15
60731;BMP280;46580;52.114;11.674;2023-05-10T08:18:25;100363.56;;;16.76
60731;BMP280;46580;52.114;11.674;2023-05-10T08:20:50;100358.81;;;16.79
60731;BMP280;46580;52.114;11.674;2023-05-10T08:23:18;100366.63;;;16.79
60731;BMP280;46580;52.114;11.674;2023-05-10T08:25:43;100374.09;;;16.82
60731;BMP280;46580;52.114;11.674;2023-05-10T08:28:09;100368.75;;;16.76
60731;BMP280;46580;52.114;11.674;2023-05-10T08:30:37;100384.16;;;16.46
60731;BMP280;46580;52.114;11.674;2023-05-10T08:33:02;100379.44;;;16.42
60731;BMP280;46580;52.114;11.674;2023-05-10T08:35:28;100388.50;;;16.38
60731;BMP280;46580;52.114;11.674;2023-05-10T08:37:53;100387.75;;;16.61
60731;BMP280;46580;52.114;11.674;2023-05-10T08:40:19;100388.34;;;16.32
60731;BMP280;46580;52.114;11.674;2023-05-10T08:43:04;100393.06;;;16.28
60731;BMP280;46580;52.114;11.674;2023-05-10T08:45:35;100393.34;;;16.10
60731;BMP280;46580;52.114;11.674;2023-05-10T08:48:02;100394.50;;;16.23
60731;BMP280;46580;52.114;11.674;2023-05-10T08:50:31;100397.44;;;16.28
60731;BMP280;46580;52.114;11.674;2023-05-10T08:53:00;100395.94;;;16.18
60731;BMP280;46580;52.114;11.674;2023-05-10T08:55:26;100397.91;;;16.16
60731;BMP280;46580;52.114;11.674;2023-05-10T08:57:54;100395.50;;;16.30
60731;BMP280;46580;52.114;11.674;2023-05-10T09:00:20;100401.34;;;16.39
60731;BMP280;46580;52.114;11.674;2023-05-10T09:02:50;100403.28;;;16.37
60731;BMP280;46580;52.114;11.674;2023-05-10T09:05:16;100413.06;;;16.51
60731;BMP280;46580;52.114;11.674;2023-05-10T09:07:42;100412.38;;;16.34
60731;BMP280;46580;52.114;11.674;2023-05-10T09:10:11;100413.53;;;16.47
60731;BMP280;46580;52.114;11.674;2023-05-10T09:12:37;100419.06;;;16.44
60731;BMP280;46580;52.114;11.674;2023-05-10T09:15:10;100427.31;;;16.32
60731;BMP280;46580;52.114;11.674;2023-05-10T09:17:37;100424.09;;;16.45
60731;BMP280;46580;52.114;11.674;2023-05-10T09:20:04;100433.84;;;16.59
60731;BMP280;46580;52.114;11.674;2023-05-10T09:22:39;100436.97;;;16.62
60731;BMP280;46580;52.114;11.674;2023-05-10T09:25:09;100437.75;;;16.47
60731;BMP280;46580;52.114;11.674;2023-05-10T09:27:37;100437.88;;;16.38
60731;BMP280;46580;52.114;11.674;2023-05-10T09:30:03;100442.44;;;16.52
60731;BMP280;46580;52.114;11.674;2023-05-10T09:32:45;100446.19;;;16.49
60731;BMP280;46580;52.114;11.674;2023-05-10T09:35:15;100436.09;;;16.38
60731;BMP280;46580;52.114;11.674;2023-05-10T09:37:43;100441.06;;;16.17
60731;BMP280;46580;52.114;11.674;2023-05-10T09:40:12;100449.94;;;16.06
60731;BMP280;46580;52.114;11.674;2023-05-10T09:42:38;100453.41;;;16.15
60731;BMP280;46580;52.114;11.674;2023-05-10T09:45:04;100451.88;;;16.04
60731;BMP280;46580;52.114;11.674;2023-05-10T09:47:36;100451.66;;;16.23
60731;BMP280;46580;52.114;11.674;2023-05-10T09:50:03;100452.63;;;16.37
60731;BMP280;46580;52.114;11.674;2023-05-10T09:52:58;100462.09;;;16.54
60731;BMP280;46580;52.114;11.674;2023-05-10T09:55:37;100452.72;;;16.61
60731;BMP280;46580;52.114;11.674;2023-05-10T09:58:06;100466.00;;;16.50
60731;BMP280;46580;52.114;11.674;2023-05-10T10:00:40;100462.53;;;16.34
60731;BMP280;46580;52.114;11.674;2023-05-10T10:03:06;100463.25;;;16.44
60731;BMP280;46580;52.114;11.674;2023-05-10T10:05:33;100467.63;;;16.51
60731;BMP280;46580;52.114;11.674;2023-05-10T10:08:01;100477.69;;;16.54
60731;BMP280;46580;52.114;11.674;2023-05-10T10:46:14;100506.44;;;16.53
60731;BMP280;46580;52.114;11.674;2023-05-10T10:48:52;100500.28;;;16.61
60731;BMP280;46580;52.114;11.674;2023-05-10T10:51:38;100500.75;;;16.49
60731;BMP280;46580;52.114;11.674;2023-05-10T10:54:11;100501.56;;;16.50
60731;BMP280;46580;52.114;11.674;2023-05-10T10:56:36;100507.13;;;16.62
60731;BMP280;46580;52.114;11.674;2023-05-10T10:59:02;100506.31;;;16.62
60731;BMP280;46580;52.114;11.674;2023-05-10T11:01:33;100505.63;;;16.52
60731;BMP280;46580;52.114;11.674;2023-05-10T11:06:31;100512.34;;;16.22
60731;BMP280;46580;52.114;11.674;2023-05-10T11:36:32;100530.53;;;16.70
60731;BMP280;46580;52.114;11.674;2023-05-10T12:15:17;100551.59;;;17.08
60731;BMP280;46580;52.114;11.674;2023-05-10T12:17:46;100553.03;;;16.94
60731;BMP280;46580;52.114;11.674;2023-05-10T12:20:27;100557.44;;;17.02
60731;BMP280;46580;52.114;11.674;2023-05-10T12:22:54;100553.84;;;16.95
60731;BMP280;46580;52.114;11.674;2023-05-10T12:25:22;100565.16;;;16.86
60731;BMP280;46580;52.114;11.674;2023-05-10T12:27:53;100574.06;;;16.68
60731;BMP280;46580;52.114;11.674;2023-05-10T12:30:37;100568.88;;;16.76
60731;BMP280;46580;52.114;11.674;2023-05-10T12:33:07;100569.25;;;16.89
60731;BMP280;46580;52.114;11.674;2023-05-10T12:35:33;100570.72;;;16.91
60731;BMP280;46580;52.114;11.674;2023-05-10T12:37:59;100574.00;;;16.93
60731;BMP280;46580;52.114;11.674;2023-05-10T12:40:27;100580.19;;;17.00
60731;BMP280;46580;52.114;11.674;2023-05-10T12:42:52;100570.47;;;17.10
60731;BMP280;46580;52.114;11.674;2023-05-10T12:45:26;100574.19;;;17.15
60731;BMP280;46580;52.114;11.674;2023-05-10T12:47:52;100581.22;;;17.22
60731;BMP280;46580;52.114;11.674;2023-05-10T12:50:17;100580.69;;;17.19
60731;BMP280;46580;52.114;11.674;2023-05-10T12:52:43;100577.28;;;17.03
60731;BMP280;46580;52.114;11.674;2023-05-10T12:55:16;100581.50;;;17.04
60731;BMP280;46580;52.114;11.674;2023-05-10T12:57:41;100589.13;;;17.05
60731;BMP280;46580;52.114;11.674;2023-05-10T13:00:09;100583.94;;;17.13
60731;BMP280;46580;52.114;11.674;2023-05-10T13:02:35;100581.50;;;17.19
60731;BMP280;46580;52.114;11.674;2023-05-10T13:05:03;100581.50;;;17.19
60731;BMP280;46580;52.114;11.674;2023-05-10T13:07:30;100583.63;;;17.16
60731;BMP280;46580;52.114;11.674;2023-05-10T13:10:03;100591.00;;;16.88
60731;BMP280;46580;52.114;11.674;2023-05-10T13:12:29;100591.50;;;16.83
60731;BMP280;46580;52.114;11.674;2023-05-10T13:14:57;100588.16;;;17.06
60731;BMP280;46580;52.114;11.674;2023-05-10T13:17:25;100587.38;;;17.29
60731;BMP280;46580;52.114;11.674;2023-05-10T13:19:53;100587.06;;;17.16
60731;BMP280;46580;52.114;11.674;2023-05-10T13:22:18;100591.25;;;17.02
60731;BMP280;46580;52.114;11.674;2023-05-10T13:24:52;100597.31;;;16.77
60731;BMP280;46580;52.114;11.674;2023-05-10T13:27:18;100593.41;;;16.74
60731;BMP280;46580;52.114;11.674;2023-05-10T13:29:43;100587.78;;;16.53
60731;BMP280;46580;52.114;11.674;2023-05-10T13:32:09;100594.41;;;16.40
60731;BMP280;46580;52.114;11.674;2023-05-10T13:34:42;100584.53;;;16.43
60731;BMP280;46580;52.114;11.674;2023-05-10T13:37:07;100591.03;;;16.47
60731;BMP280;46580;52.114;11.674;2023-05-10T13:39:40;100596.28;;;16.63
60731;BMP280;46580;52.114;11.674;2023-05-10T13:42:06;100592.41;;;16.67
60731;BMP280;46580;52.114;11.674;2023-05-10T13:44:31;100591.63;;;16.74
60731;BMP280;46580;52.114;11.674;2023-05-10T13:46:58;100586.56;;;16.73
60731;BMP280;46580;52.114;11.674;2023-05-10T13:49:26;100589.34;;;16.79
60731;BMP280;46580;52.114;11.674;2023-05-10T13:51:52;100594.91;;;16.84
60731;BMP280;46580;52.114;11.674;2023-05-10T13:54:20;100592.56;;;16.98
60731;BMP280;46580;52.114;11.674;2023-05-10T13:56:55;100586.41;;;17.22
60731;BMP280;46580;52.114;11.674;2023-05-10T13:59:20;100590.75;;;17.06
60731;BMP280;46580;52.114;11.674;2023-05-10T14:01:46;100598.25;;;17.09
60731;BMP280;46580;52.114;11.674;2023-05-10T14:04:15;100599.28;;;17.31
60731;BMP280;46580;52.114;11.674;2023-05-10T14:06:41;100591.63;;;17.38
60731;BMP280;46580;52.114;11.674;2023-05-10T14:09:14;100595.84;;;17.39
60731;BMP280;46580;52.114;11.674;2023-05-10T14:11:39;100596.53;;;17.64
60731;BMP280;46580;52.114;11.674;2023-05-10T14:14:11;100588.22;;;17.68
60731;BMP280;46580;52.114;11.674;2023-05-10T14:16:36;100596.53;;;17.87
60731;BMP280;46580;52.114;11.674;2023-05-10T14:19:04;100591.97;;;17.97
60731;BMP280;46580;52.114;11.674;2023-05-10T14:21:30;100598.16;;;18.04
60731;BMP280;46580;52.114;11.674;2023-05-10T14:24:00;100592.13;;;18.04
60731;BMP280;46580;52.114;11.674;2023-05-10T14:26:26;100599.78;;;17.97
60731;BMP280;46580;52.114;11.674;2023-05-10T14:28:52;100585.63;;;17.68
60731;BMP280;46580;52.114;11.674;2023-05-10T14:31:20;100593.25;;;17.70
60731;BMP280;46580;52.114;11.674;2023-05-10T14:33:55;100590.97;;;17.59
60731;BMP280;46580;52.114;11.674;2023-05-10T14:36:20;100590.66;;;17.70
60731;BMP280;46580;52.114;11.674;2023-05-10T14:38:46;100586.28;;;17.70
60731;BMP280;46580;52.114;11.674;2023-05-10T14:41:11;100587.91;;;17.71
60731;BMP280;46580;52.114;11.674;2023-05-10T14:43:42;100577.81;;;17.68
60731;BMP280;46580;52.114;11.674;2023-05-10T14:46:07;100582.53;;;17.88
60731;BMP280;46580;52.114;11.674;2023-05-10T14:48:39;100587.72;;;17.81
60731;BMP280;46580;52.114;11.674;2023-05-10T14:51:08;100591.13;;;17.73
60731;BMP280;46580;52.114;11.674;2023-05-10T14:53:33;100578.31;;;17.72
60731;BMP280;46580;52.114;11.674;2023-05-10T14:55:59;100588.22;;;17.68
60731;BMP280;46580;52.114;11.674;2023-05-10T14:58:31;100591.94;;;17.66
60731;BMP280;46580;52.114;11.674;2023-05-10T15:00:59;100587.41;;;17.60
60731;BMP280;46580;52.114;11.674;2023-05-10T15:03:25;100587.75;;;17.57
60731;BMP280;46580;52.114;11.674;2023-05-10T15:05:50;100589.69;;;17.63
60731;BMP280;46580;52.114;11.674;2023-05-10T15:08:24;100587.75;;;17.65
60731;BMP280;46580;52.114;11.674;2023-05-10T15:10:50;100592.59;;;17.60
60731;BMP280;46580;52.114;11.674;2023-05-10T15:13:18;100602.53;;;17.57
60731;BMP280;46580;52.114;11.674;2023-05-10T15:15:44;100594.38;;;17.60
60731;BMP280;46580;52.114;11.674;2023-05-10T15:18:17;100597.81;;;17.52
60731;BMP280;46580;52.114;11.674;2023-05-10T15:20:42;100597.81;;;17.60
60731;BMP280;46580;52.114;11.674;2023-05-10T15:23:10;100596.19;;;17.59
60731;BMP280;46580;52.114;11.674;2023-05-10T15:25:35;100597.81;;;17.68
60731;BMP280;46580;52.114;11.674;2023-05-10T15:28:03;100601.06;;;17.78
60731;BMP280;46580;52.114;11.674;2023-05-10T15:30:29;100598.66;;;17.92
60731;BMP280;46580;52.114;11.674;2023-05-10T15:33:02;100599.44;;;18.08
60731;BMP280;46580;52.114;11.674;2023-05-10T15:35:28;100594.50;;;18.21
60731;BMP280;46580;52.114;11.674;2023-05-10T15:37:55;100591.88;;;18.36
60731;BMP280;46580;52.114;11.674;2023-05-10T15:40:21;100594.16;;;18.39
60731;BMP280;46580;52.114;11.674;2023-05-10T15:42:54;100596.44;;;18.34
60731;BMP280;46580;52.114;11.674;2023-05-10T15:45:19;100600.06;;;18.25
60731;BMP280;46580;52.114;11.674;2023-05-10T15:47:45;100591.88;;;18.36
60731;BMP280;46580;52.114;11.674;2023-05-10T15:50:14;100600.06;;;18.25
60731;BMP280;46580;52.114;11.674;2023-05-10T15:52:43;100602.81;;;18.24
60731;BMP280;46580;52.114;11.674;2023-05-10T15:55:08;100598.59;;;18.15
60731;BMP280;46580;52.114;11.674;2023-05-10T15:57:41;100601.34;;;18.22
60731;BMP280;46580;52.114;11.674;2023-05-10T16:00:10;100602.00;;;18.31
60731;BMP280;46580;52.114;11.674;2023-05-10T16:02:36;100605.28;;;18.18
60731;BMP280;46580;52.114;11.674;2023-05-10T16:05:03;100598.91;;;18.20
60731;BMP280;46580;52.114;11.674;2023-05-10T16:07:32;100603.81;;;18.07
60731;BMP280;46580;52.114;11.674;2023-05-10T16:09:57;100605.94;;;18.12
60731;BMP280;46580;52.114;11.674;2023-05-10T16:12:29;100605.94;;;18.12
60731;BMP280;46580;52.114;11.674;2023-05-10T16:14:55;100598.94;;;18.12
60731;BMP280;46580;52.114;11.674;2023-05-10T16:17:24;100602.03;;;18.16
60731;BMP280;46580;52.114;11.674;2023-05-10T16:19:49;100597.78;;;18.07
60731;BMP280;46580;52.114;11.674;2023-05-10T16:22:24;100604.16;;;18.12
60731;BMP280;46580;52.114;11.674;2023-05-10T16:24:52;100596.50;;;18.11
60731;BMP280;46580;52.114;11.674;2023-05-10T16:27:18;100601.34;;;18.22
60731;BMP280;46580;52.114;11.674;2023-05-10T16:29:46;100604.13;;;18.20
60731;BMP280;46580;52.114;11.674;2023-05-10T16:32:11;100609.03;;;18.15
60731;BMP280;46580;52.114;11.674;2023-05-10T16:34:37;100608.88;;;18.01
60731;BMP280;46580;52.114;11.674;2023-05-10T16:37:02;100614.13;;;17.86
60731;BMP280;46580;52.114;11.674;2023-05-10T16:39:28;100617.34;;;17.87
60731;BMP280;46580;52.114;11.674;2023-05-10T16:46:46;100610.19;;;18.05
60731;BMP280;46580;52.114;11.674;2023-05-10T16:59:03;100621.44;;;17.90
60731;BMP280;46580;52.114;11.674;2023-05-10T17:01:47;100628.44;;;17.89
60731;BMP280;46580;52.114;11.674;2023-05-10T17:04:12;100625.81;;;17.89
60731;BMP280;46580;52.114;11.674;2023-05-10T17:06:38;100625.78;;;17.74
60731;BMP280;46580;52.114;11.674;2023-05-10T17:09:04;100625.78;;;17.82
60731;BMP280;46580;52.114;11.674;2023-05-10T17:11:30;100631.00;;;17.74
60731;BMP280;46580;52.114;11.674;2023-05-10T17:13:57;100625.00;;;17.89
60731;BMP280;46580;52.114;11.674;2023-05-10T17:16:26;100631.03;;;17.89
60731;BMP280;46580;52.114;11.674;2023-05-10T17:18:51;100626.97;;;17.87
60731;BMP280;46580;52.114;11.674;2023-05-10T17:21:19;100633.59;;;17.82
60731;BMP280;46580;52.114;11.674;2023-05-10T17:23:46;100635.59;;;17.95
60731;BMP280;46580;52.114;11.674;2023-05-10T17:50:48;100663.88;;;17.51
60731;BMP280;46580;52.114;11.674;2023-05-10T18:00:07;100673.56;;;17.34
60731;BMP280;46580;52.114;11.674;2023-05-10T18:02:36;100674.53;;;17.33
60731;BMP280;46580;52.114;11.674;2023-05-10T18:05:03;100682.97;;;17.27
60731;BMP280;46580;52.114;11.674;2023-05-10T18:07:29;100677.44;;;17.22
60731;BMP280;46580;52.114;11.674;2023-05-10T18:09:57;100678.91;;;17.17
60731;BMP280;46580;52.114;11.674;2023-05-10T18:12:23;100685.25;;;17.22
60731;BMP280;46580;52.114;11.674;2023-05-10T18:14:51;100689.13;;;17.18
60731;BMP280;46580;52.114;11.674;2023-05-10T18:17:20;100687.53;;;17.17
60731;BMP280;46580;52.114;11.674;2023-05-10T18:19:48;100683.25;;;17.09
60731;BMP280;46580;52.114;11.674;2023-05-10T18:22:14;100685.53;;;17.12
60731;BMP280;46580;52.114;11.674;2023-05-10T20:29:33;100759.28;;;16.28
60731;BMP280;46580;52.114;11.674;2023-05-10T20:32:59;100765.16;;;16.30
60731;BMP280;46580;52.114;11.674;2023-05-10T20:36:24;100760.56;;;16.07
